Time;durP1;ratioP1;P1;durP2;ratioP2;P2;SDS_P1;SDS_P2;PMS_P1;PMS_P2;Temp;Humidity;BMP_temperature;BMP_pressure;BME280_temperature;BME280_humidity;BME280_pressure;Samples;Min_cycle;Max_cycle;Signal;HPM_P1;HPM_P2
2021/09/11 00:01:57;;;;;;;;;;;;;;;18.39;100.00;101420.50;4901527;30;19915;-67
2021/09/11 00:04:28;;;;;;;;;;;;;;;18.37;100.00;101427.78;4907495;30;19980;-66
2021/09/11 00:06:59;;;;;;;;;;;;;;;18.34;100.00;101428.97;4899238;30;20020;-67
2021/09/11 00:09:31;;;;;;;;;;;;;;;18.32;100.00;101430.13;4906786;30;19926;-70
2021/09/11 00:12:02;;;;;;;;;;;;;;;18.30;100.00;101421.53;4901695;30;19986;-67
2021/09/11 00:14:33;;;;;;;;;;;;;;;18.28;100.00;101429.63;4907680;30;19915;-67
2021/09/11 00:17:05;;;;;;;;;;;;;;;18.27;100.00;101427.16;4898326;30;19941;-67
2021/09/11 00:19:36;;;;;;;;;;;;;;;18.23;100.00;101427.47;4906596;30;19926;-67
2021/09/11 00:22:07;;;;;;;;;;;;;;;18.18;100.00;101429.81;4906769;30;19930;-66
2021/09/11 00:24:38;;;;;;;;;;;;;;;18.13;100.00;101421.50;4901824;30;19993;-67
2021/09/11 00:27:09;;;;;;;;;;;;;;;18.07;100.00;101429.28;4903256;30;19923;-70
2021/09/11 00:29:41;;;;;;;;;;;;;;;18.03;100.00;101426.13;4907756;30;19934;-66
2021/09/11 00:32:12;;;;;;;;;;;;;;;17.99;100.00;101420.34;4910001;30;19914;-67
2021/09/11 00:34:43;;;;;;;;;;;;;;;17.96;100.00;101419.84;4911478;30;19946;-68
2021/09/11 00:37:14;;;;;;;;;;;;;;;17.92;100.00;101418.53;4901172;30;19977;-68
2021/09/11 00:39:45;;;;;;;;;;;;;;;17.84;100.00;101421.13;4905118;30;19919;-66
2021/09/11 00:42:17;;;;;;;;;;;;;;;17.81;100.00;101422.31;4902358;30;20420;-66
2021/09/11 00:44:50;;;;;;;;;;;;;;;17.76;100.00;101419.31;4910668;30;19923;-66
2021/09/11 00:47:22;;;;;;;;;;;;;;;17.70;100.00;101419.94;4905733;30;19938;-67
2021/09/11 00:49:53;;;;;;;;;;;;;;;17.67;100.00;101415.78;4905205;30;19915;-67
2021/09/11 00:52:24;;;;;;;;;;;;;;;17.61;100.00;101428.84;4904020;30;19930;-66
2021/09/11 00:54:55;;;;;;;;;;;;;;;17.56;100.00;101418.75;4901499;30;20343;-67
2021/09/11 00:57:27;;;;;;;;;;;;;;;17.54;100.00;101426.03;4903803;30;19915;-67
2021/09/11 00:59:58;;;;;;;;;;;;;;;17.49;100.00;101428.31;4898082;30;19918;-67
2021/09/11 01:02:29;;;;;;;;;;;;;;;17.46;100.00;101432.13;4901945;30;19919;-67
2021/09/11 01:05:03;;;;;;;;;;;;;;;17.43;100.00;101423.69;4901148;30;19915;-66
2021/09/11 01:07:34;;;;;;;;;;;;;;;17.40;100.00;101429.28;4905053;30;19923;-66
2021/09/11 01:10:06;;;;;;;;;;;;;;;17.37;100.00;101426.97;4892794;30;20059;-66
2021/09/11 01:12:38;;;;;;;;;;;;;;;17.35;100.00;101432.44;4905064;30;20192;-66
2021/09/11 01:15:11;;;;;;;;;;;;;;;17.34;100.00;101424.63;4906437;30;20391;-66
2021/09/11 01:17:45;;;;;;;;;;;;;;;17.33;100.00;101425.63;4907045;30;19919;-66
2021/09/11 01:20:16;;;;;;;;;;;;;;;17.31;100.00;101428.41;4899682;30;19919;-69
2021/09/11 01:22:47;;;;;;;;;;;;;;;17.29;100.00;101429.59;4900502;30;19942;-66
2021/09/11 01:25:18;;;;;;;;;;;;;;;17.27;100.00;101427.09;4896403;30;20371;-67
2021/09/11 01:27:50;;;;;;;;;;;;;;;17.26;100.00;101431.56;4905672;30;19931;-66
2021/09/11 01:30:21;;;;;;;;;;;;;;;17.24;100.00;101428.25;4904452;30;19918;-66
2021/09/11 01:32:53;;;;;;;;;;;;;;;17.23;100.00;101429.22;4897448;30;20424;-67
2021/09/11 01:35:24;;;;;;;;;;;;;;;17.21;100.00;101428.56;4899467;30;19961;-66
2021/09/11 01:37:55;;;;;;;;;;;;;;;17.18;100.00;101436.81;4911067;30;19925;-66
2021/09/11 01:40:26;;;;;;;;;;;;;;;17.16;100.00;101435.31;4898447;30;19930;-66
2021/09/11 01:42:57;;;;;;;;;;;;;;;17.12;100.00;101432.19;4907407;30;19930;-67
2021/09/11 01:45:29;;;;;;;;;;;;;;;17.10;100.00;101422.72;4895750;30;19938;-66
2021/09/11 01:48:00;;;;;;;;;;;;;;;17.07;100.00;101433.63;4898357;30;19923;-66
2021/09/11 01:50:31;;;;;;;;;;;;;;;17.04;100.00;101432.09;4904431;30;19957;-68
2021/09/11 01:53:02;;;;;;;;;;;;;;;17.04;100.00;101434.75;4903488;30;19919;-67
2021/09/11 01:55:33;;;;;;;;;;;;;;;17.03;100.00;101435.75;4896028;30;19915;-67
2021/09/11 01:58:05;;;;;;;;;;;;;;;17.00;100.00;101438.72;4906594;30;19918;-66
2021/09/11 02:00:36;;;;;;;;;;;;;;;16.97;100.00;101437.22;4896290;30;19919;-67
2021/09/11 02:03:07;;;;;;;;;;;;;;;16.95;100.00;101438.34;4896721;30;19949;-66
2021/09/11 02:05:38;;;;;;;;;;;;;;;16.89;100.00;101437.16;4894163;30;19923;-69
2021/09/11 02:08:10;;;;;;;;;;;;;;;16.87;100.00;101440.97;4901806;30;19927;-66
2021/09/11 02:10:41;;;;;;;;;;;;;;;16.86;100.00;101436.63;4903198;30;19922;-66
2021/09/11 02:13:12;;;;;;;;;;;;;;;16.83;100.00;101443.09;4906877;30;19919;-67
2021/09/11 02:15:43;;;;;;;;;;;;;;;16.80;100.00;101435.47;4901317;30;20184;-66
2021/09/11 02:18:14;;;;;;;;;;;;;;;16.78;100.00;101432.13;4909927;30;20344;-67
2021/09/11 02:20:45;;;;;;;;;;;;;;;16.76;100.00;101434.13;4899292;30;19945;-67
2021/09/11 02:23:17;;;;;;;;;;;;;;;16.72;100.00;101433.56;4900599;30;19915;-67
2021/09/11 02:25:48;;;;;;;;;;;;;;;16.70;100.00;101440.00;4904489;30;19972;-66
2021/09/11 02:28:19;;;;;;;;;;;;;;;16.68;100.00;101439.34;4901510;30;20417;-67
2021/09/11 02:30:50;;;;;;;;;;;;;;;16.66;100.00;101446.56;4896067;30;20689;-68
2021/09/11 02:33:21;;;;;;;;;;;;;;;16.62;100.00;101443.41;4902613;30;19976;-68
2021/09/11 02:35:53;;;;;;;;;;;;;;;16.56;100.00;101446.69;4905096;30;19923;-69
2021/09/11 02:38:24;;;;;;;;;;;;;;;16.53;100.00;101442.53;4904184;30;20017;-68
2021/09/11 02:40:55;;;;;;;;;;;;;;;16.50;100.00;101439.38;4905985;30;19960;-67
2021/09/11 02:43:26;;;;;;;;;;;;;;;16.46;100.00;101432.72;4904385;30;19973;-68
2021/09/11 02:45:57;;;;;;;;;;;;;;;16.44;100.00;101430.25;4897290;30;19915;-67
2021/09/11 02:48:29;;;;;;;;;;;;;;;16.40;100.00;101439.47;4898251;30;19915;-67
2021/09/11 02:51:00;;;;;;;;;;;;;;;16.37;100.00;101442.41;4902224;30;19923;-67
2021/09/11 02:53:32;;;;;;;;;;;;;;;16.29;100.00;101426.50;4898020;30;20064;-68
2021/09/11 02:56:03;;;;;;;;;;;;;;;16.35;100.00;101444.38;4895942;30;20371;-67
2021/09/11 02:58:34;;;;;;;;;;;;;;;16.33;100.00;101446.34;4902451;30;19919;-67
2021/09/11 03:01:05;;;;;;;;;;;;;;;16.32;100.00;101441.19;4904499;30;19922;-67
2021/09/11 03:03:37;;;;;;;;;;;;;;;16.30;100.00;101441.38;4912739;30;19918;-67
2021/09/11 03:06:08;;;;;;;;;;;;;;;16.27;100.00;101442.50;4912453;30;19919;-67
2021/09/11 03:08:42;;;;;;;;;;;;;;;16.25;100.00;101435.69;4907147;30;19961;-67
2021/09/11 03:11:14;;;;;;;;;;;;;;;16.23;100.00;101435.03;4913355;30;19915;-66
2021/09/11 03:13:45;;;;;;;;;;;;;;;16.20;100.00;101428.22;4913418;30;20302;-66
2021/09/11 03:16:16;;;;;;;;;;;;;;;16.19;100.00;101431.03;4905350;30;19919;-66
2021/09/11 03:18:47;;;;;;;;;;;;;;;16.16;100.00;101431.31;4911545;30;19973;-67
2021/09/11 03:21:19;;;;;;;;;;;;;;;16.14;100.00;101433.28;4913592;30;19914;-67
2021/09/11 03:23:50;;;;;;;;;;;;;;;16.13;100.00;101434.25;4905837;30;19926;-67
2021/09/11 03:26:21;;;;;;;;;;;;;;;16.09;100.00;101428.44;4905259;30;20465;-66
2021/09/11 03:28:52;;;;;;;;;;;;;;;16.09;100.00;101436.38;4894780;30;20052;-67
2021/09/11 03:31:23;;;;;;;;;;;;;;;16.09;100.00;101431.09;4908426;30;19926;-67
2021/09/11 03:33:55;;;;;;;;;;;;;;;16.09;100.00;101432.91;4905555;30;19927;-67
2021/09/11 03:36:26;;;;;;;;;;;;;;;16.08;100.00;101447.94;4910612;30;19989;-67
2021/09/11 03:38:57;;;;;;;;;;;;;;;16.08;100.00;101444.47;4911447;30;19961;-67
2021/09/11 03:41:28;;;;;;;;;;;;;;;16.06;100.00;101436.69;4909561;30;19922;-67
2021/09/11 03:43:59;;;;;;;;;;;;;;;16.07;100.00;101441.00;4905635;30;19950;-66
2021/09/11 03:46:31;;;;;;;;;;;;;;;16.07;100.00;101441.00;4894931;30;19930;-67
2021/09/11 03:49:02;;;;;;;;;;;;;;;16.08;100.00;101445.31;4897292;30;19926;-67
2021/09/11 03:51:34;;;;;;;;;;;;;;;16.07;100.00;101437.53;4905099;30;19919;-67
2021/09/11 03:54:05;;;;;;;;;;;;;;;16.06;100.00;101444.59;4912275;30;19926;-67
2021/09/11 03:56:39;;;;;;;;;;;;;;;16.07;100.00;101441.00;4912809;30;19921;-67
2021/09/11 03:59:10;;;;;;;;;;;;;;;16.09;100.00;101446.13;4898237;30;20005;-67
2021/09/11 04:01:41;;;;;;;;;;;;;;;16.10;100.00;101445.13;4908226;30;20017;-66
2021/09/11 04:04:12;;;;;;;;;;;;;;;16.10;100.00;101446.00;4905413;30;19968;-67
2021/09/11 04:06:44;;;;;;;;;;;;;;;16.10;100.00;101448.63;4908102;30;19966;-66
2021/09/11 04:09:15;;;;;;;;;;;;;;;16.10;100.00;101438.06;4904760;30;19921;-67
2021/09/11 04:11:46;;;;;;;;;;;;;;;16.11;100.00;101447.66;4912181;30;19923;-66
2021/09/11 04:14:17;;;;;;;;;;;;;;;16.12;100.00;101446.66;4908581;30;19925;-66
2021/09/11 04:16:48;;;;;;;;;;;;;;;16.13;100.00;101453.59;4903304;30;19922;-67
2021/09/11 04:19:20;;;;;;;;;;;;;;;16.15;100.00;101461.41;4912373;30;19966;-67
2021/09/11 04:21:51;;;;;;;;;;;;;;;16.15;100.00;101451.66;4912386;30;20002;-67
2021/09/11 04:24:22;;;;;;;;;;;;;;;16.18;100.00;101445.22;4910546;30;19925;-67
2021/09/11 04:26:54;;;;;;;;;;;;;;;16.18;100.00;101446.06;4902036;30;20286;-67
2021/09/11 04:29:25;;;;;;;;;;;;;;;16.19;100.00;101439.78;4910774;30;19919;-67
2021/09/11 04:31:56;;;;;;;;;;;;;;;16.21;100.00;101435.19;4900482;30;19958;-67
2021/09/11 04:34:27;;;;;;;;;;;;;;;16.22;100.00;101436.84;4900969;30;19926;-66
2021/09/11 04:36:58;;;;;;;;;;;;;;;16.23;100.00;101445.59;4904753;30;19945;-66
2021/09/11 04:39:30;;;;;;;;;;;;;;;16.25;100.00;101446.25;4911496;30;19915;-67
2021/09/11 04:42:01;;;;;;;;;;;;;;;16.25;100.00;101448.91;4910620;30;20394;-67
2021/09/11 04:44:32;;;;;;;;;;;;;;;16.26;100.00;101446.13;4899273;30;19973;-66
2021/09/11 04:47:03;;;;;;;;;;;;;;;16.27;100.00;101453.06;4898087;30;19927;-67
2021/09/11 04:49:34;;;;;;;;;;;;;;;16.27;100.00;101449.59;4896463;30;20013;-66
2021/09/11 04:52:06;;;;;;;;;;;;;;;16.30;100.00;101451.94;4904770;30;19919;-67
2021/09/11 04:54:37;;;;;;;;;;;;;;;16.30;100.00;101450.13;4908831;30;19921;-66
2021/09/11 04:57:08;;;;;;;;;;;;;;;16.29;100.00;101450.28;4911858;30;19965;-66
2021/09/11 04:59:39;;;;;;;;;;;;;;;16.31;100.00;101453.59;4906864;30;20400;-67
2021/09/11 05:02:11;;;;;;;;;;;;;;;16.31;100.00;101448.31;4900111;30;19981;-67
2021/09/11 05:04:42;;;;;;;;;;;;;;;16.32;100.00;101447.31;4894089;30;19927;-67
2021/09/11 05:07:13;;;;;;;;;;;;;;;16.34;100.00;101452.47;4893217;30;19930;-67
2021/09/11 05:09:44;;;;;;;;;;;;;;;16.34;100.00;101455.13;4901982;30;19973;-67
2021/09/11 05:12:15;;;;;;;;;;;;;;;16.34;100.00;101463.03;4911338;30;19919;-67
2021/09/11 05:14:47;;;;;;;;;;;;;;;16.35;100.00;101464.69;4911458;30;19923;-67
2021/09/11 05:17:18;;;;;;;;;;;;;;;16.35;100.00;101454.13;4905576;30;19962;-67
2021/09/11 05:19:49;;;;;;;;;;;;;;;16.37;100.00;101460.09;4902720;30;19918;-66
2021/09/11 05:22:20;;;;;;;;;;;;;;;16.37;100.00;101462.75;4911075;30;20120;-67
2021/09/11 05:24:51;;;;;;;;;;;;;;;16.38;100.00;101465.22;4911224;30;19950;-67
2021/09/11 05:27:23;;;;;;;;;;;;;;;16.38;100.00;101467.88;4904546;30;19918;-67
2021/09/11 05:29:54;;;;;;;;;;;;;;;16.39;100.00;101466.06;4900722;30;20416;-66
2021/09/11 05:32:25;;;;;;;;;;;;;;;16.41;100.00;101469.38;4899866;30;19922;-67
2021/09/11 05:34:56;;;;;;;;;;;;;;;16.41;100.00;101467.56;4908238;30;20457;-67
2021/09/11 05:37:27;;;;;;;;;;;;;;;16.43;100.00;101478.00;4895280;30;19919;-67
2021/09/11 05:39:59;;;;;;;;;;;;;;;16.43;100.00;101473.53;4910352;30;20550;-66
2021/09/11 05:42:30;;;;;;;;;;;;;;;16.44;100.00;101477.84;4909928;30;20013;-67
2021/09/11 05:45:01;;;;;;;;;;;;;;;16.46;100.00;101480.31;4903629;30;20021;-67
2021/09/11 05:47:33;;;;;;;;;;;;;;;16.47;100.00;101481.97;4897456;30;19926;-67
2021/09/11 05:50:04;;;;;;;;;;;;;;;16.45;100.00;101484.78;4893399;30;19915;-67
2021/09/11 05:52:36;;;;;;;;;;;;;;;16.46;100.00;101486.44;4902754;30;20297;-66
2021/09/11 05:55:07;;;;;;;;;;;;;;;16.46;100.00;101488.25;4904209;30;19915;-67
2021/09/11 05:57:38;;;;;;;;;;;;;;;16.45;100.00;101481.31;4910951;30;19915;-66
2021/09/11 06:00:10;;;;;;;;;;;;;;;16.44;100.00;101488.44;4909963;30;19914;-66
2021/09/11 06:02:41;;;;;;;;;;;;;;;16.44;100.00;101498.16;4897643;30;19923;-67
2021/09/11 06:05:12;;;;;;;;;;;;;;;16.44;100.00;101501.66;4897145;30;19919;-67
2021/09/11 06:07:43;;;;;;;;;;;;;;;16.46;100.00;101496.19;4909210;30;19963;-67
2021/09/11 06:10:15;;;;;;;;;;;;;;;16.47;100.00;101496.03;4905214;30;19968;-66
2021/09/11 06:12:47;;;;;;;;;;;;;;;16.51;100.00;101492.09;4906789;30;19925;-67
2021/09/11 06:15:18;;;;;;;;;;;;;;;16.55;100.00;101503.19;4899343;30;19919;-67
2021/09/11 06:17:49;;;;;;;;;;;;;;;16.58;100.00;101502.91;4908891;30;19925;-67
2021/09/11 06:20:20;;;;;;;;;;;;;;;16.61;100.00;101497.31;4906515;30;19977;-67
2021/09/11 06:22:52;;;;;;;;;;;;;;;16.66;100.00;101502.13;4893716;30;20556;-67
2021/09/11 06:25:23;;;;;;;;;;;;;;;16.69;100.00;101501.84;4898984;30;19927;-67
2021/09/11 06:27:54;;;;;;;;;;;;;;;16.75;100.00;101517.13;4907282;30;20000;-67
2021/09/11 06:30:26;;;;;;;;;;;;;;;16.80;100.00;101508.72;4907725;30;19927;-66
2021/09/11 06:32:57;;;;;;;;;;;;;;;16.83;100.00;101506.59;4894690;30;19927;-67
2021/09/11 06:35:28;;;;;;;;;;;;;;;16.88;100.00;101509.59;4906581;30;19930;-66
2021/09/11 06:38:00;;;;;;;;;;;;;;;16.90;100.00;101509.47;4908820;30;20382;-67
2021/09/11 06:40:31;;;;;;;;;;;;;;;16.95;100.00;101517.78;4900753;30;20285;-67
2021/09/11 06:43:02;;;;;;;;;;;;;;;16.99;100.00;101519.94;4910007;30;19922;-67
2021/09/11 06:45:33;;;;;;;;;;;;;;;17.02;100.00;101522.28;4907641;30;19918;-67
2021/09/11 06:48:04;;;;;;;;;;;;;;;17.05;100.00;101528.25;4908338;30;19923;-67
2021/09/11 06:50:36;;;;;;;;;;;;;;;17.07;100.00;101529.75;4910142;30;20009;-66
2021/09/11 06:53:07;;;;;;;;;;;;;;;17.10;100.00;101541.84;4910603;30;19922;-67
2021/09/11 06:55:38;;;;;;;;;;;;;;;17.11;100.00;101536.41;4903331;30;19960;-67
2021/09/11 06:58:09;;;;;;;;;;;;;;;17.12;100.00;101535.44;4903584;30;20386;-67
2021/09/11 07:00:40;;;;;;;;;;;;;;;17.13;100.00;101528.31;4909158;30;19919;-67
2021/09/11 07:03:12;;;;;;;;;;;;;;;17.16;100.00;101536.78;4903403;30;19930;-66
2021/09/11 07:05:43;;;;;;;;;;;;;;;17.19;100.00;101533.78;4906533;30;19919;-67
2021/09/11 07:08:14;;;;;;;;;;;;;;;17.22;100.00;101540.59;4910563;30;20009;-67
2021/09/11 07:10:45;;;;;;;;;;;;;;;17.24;100.00;101543.94;4907795;30;20030;-66
2021/09/11 07:13:16;;;;;;;;;;;;;;;17.27;100.00;101541.81;4908578;30;20375;-66
2021/09/11 07:15:48;;;;;;;;;;;;;;;17.32;100.00;101546.63;4909411;30;19972;-67
2021/09/11 07:18:19;;;;;;;;;;;;;;;17.33;100.00;101537.69;4907359;30;19930;-66
2021/09/11 07:20:50;;;;;;;;;;;;;;;17.36;100.00;101539.19;4906158;30;19923;-67
2021/09/11 07:23:21;;;;;;;;;;;;;;;17.39;100.00;101542.38;4905480;30;20006;-67
2021/09/11 07:25:52;;;;;;;;;;;;;;;17.43;100.00;101554.31;4910971;30;19923;-67
2021/09/11 07:28:24;;;;;;;;;;;;;;;17.47;100.00;101550.34;4909322;30;20392;-67
2021/09/11 07:30:55;;;;;;;;;;;;;;;17.52;100.00;101549.88;4908672;30;20021;-67
2021/09/11 07:33:27;;;;;;;;;;;;;;;17.57;100.00;101554.69;4912162;30;19915;-67
2021/09/11 07:35:58;;;;;;;;;;;;;;;17.60;100.00;101552.56;4906705;30;19919;-67
2021/09/11 07:38:29;;;;;;;;;;;;;;;17.65;100.00;101554.72;4911358;30;19919;-67
2021/09/11 07:41:01;;;;;;;;;;;;;;;17.66;100.00;101557.22;4906527;30;19929;-67
2021/09/11 07:43:32;;;;;;;;;;;;;;;17.69;100.00;101550.75;4906590;30;19931;-67
2021/09/11 07:46:03;;;;;;;;;;;;;;;17.74;100.00;101554.59;4905661;30;20370;-67
2021/09/11 07:48:34;;;;;;;;;;;;;;;17.83;100.00;101547.53;4905290;30;19919;-68
2021/09/11 07:51:05;;;;;;;;;;;;;;;17.91;100.00;101554.69;4908123;30;19918;-67
2021/09/11 07:53:37;;;;;;;;;;;;;;;17.93;100.00;101563.31;4910803;30;19925;-67
2021/09/11 07:56:08;;;;;;;;;;;;;;;17.99;100.00;101558.22;4909759;30;20012;-67
2021/09/11 07:58:39;;;;;;;;;;;;;;;18.04;100.00;101555.06;4907416;30;19927;-67
2021/09/11 08:01:10;;;;;;;;;;;;;;;18.08;100.00;101559.06;4910526;30;19922;-67
2021/09/11 08:03:42;;;;;;;;;;;;;;;18.08;100.00;101561.72;4911099;30;19930;-67
2021/09/11 08:06:13;;;;;;;;;;;;;;;18.08;100.00;101561.72;4911638;30;19922;-67
2021/09/11 08:08:44;;;;;;;;;;;;;;;18.07;100.00;101565.38;4909562;30;19926;-67
2021/09/11 08:11:16;;;;;;;;;;;;;;;18.07;100.00;101565.38;4909342;30;20095;-67
2021/09/11 08:13:47;;;;;;;;;;;;;;;18.06;100.00;101574.28;4911590;30;19914;-67
2021/09/11 08:16:18;;;;;;;;;;;;;;;18.08;100.00;101567.03;4909786;30;19926;-67
2021/09/11 08:18:49;;;;;;;;;;;;;;;18.09;100.00;101562.53;4908211;30;19919;-67
2021/09/11 08:21:20;;;;;;;;;;;;;;;18.17;100.00;101571.34;4908294;30;20345;-67
2021/09/11 08:23:52;;;;;;;;;;;;;;;18.22;100.00;101563.75;4910490;30;20057;-67
2021/09/11 08:26:23;;;;;;;;;;;;;;;18.33;100.00;101572.38;4905635;30;20354;-67
2021/09/11 08:28:54;;;;;;;;;;;;;;;18.44;100.00;101564.09;4908458;30;20370;-68
2021/09/11 08:31:27;;;;;;;;;;;;;;;18.54;100.00;101567.44;4909843;30;19934;-67
2021/09/11 08:33:58;;;;;;;;;;;;;;;18.56;100.00;101570.75;4908876;30;19981;-67
2021/09/11 08:36:29;;;;;;;;;;;;;;;18.63;100.00;101571.72;4907444;30;20610;-67
2021/09/11 08:39:00;;;;;;;;;;;;;;;18.73;100.00;101573.44;4908057;30;19938;-67
2021/09/11 08:41:31;;;;;;;;;;;;;;;18.84;100.00;101583.75;4903610;30;19927;-67
2021/09/11 08:44:03;;;;;;;;;;;;;;;18.91;100.00;101574.94;4900733;30;20013;-67
2021/09/11 08:46:34;;;;;;;;;;;;;;;19.07;100.00;101570.59;4900605;30;19918;-67
2021/09/11 08:49:07;;;;;;;;;;;;;;;19.23;100.00;101585.69;4906781;30;19987;-67
2021/09/11 08:51:38;;;;;;;;;;;;;;;19.29;100.00;101582.38;4907497;30;19923;-67
2021/09/11 08:54:14;;;;;;;;;;;;;;;19.35;100.00;101587.81;4902360;30;19934;-67
2021/09/11 08:56:47;;;;;;;;;;;;;;;19.43;100.00;101595.78;4911538;30;19976;-67
2021/09/11 08:59:19;;;;;;;;;;;;;;;19.42;100.00;101594.09;4909762;30;20275;-67
2021/09/11 09:02:01;;;;;;;;;;;;;;;19.42;100.00;101595.94;4904271;30;19984;-67
2021/09/11 09:04:49;;;;;;;;;;;;;;;19.36;100.00;101605.44;4903553;30;19969;-67
2021/09/11 09:07:31;;;;;;;;;;;;;;;19.32;100.00;101613.88;4908895;30;19961;-67
2021/09/11 09:10:06;;;;;;;;;;;;;;;19.27;100.00;101622.38;4904306;30;19926;-67
2021/09/11 09:12:41;;;;;;;;;;;;;;;19.22;100.00;101615.91;4906912;30;19926;-67
2021/09/11 09:15:13;;;;;;;;;;;;;;;19.17;100.00;101611.94;4910553;30;20309;-67
2021/09/11 09:17:49;;;;;;;;;;;;;;;19.18;100.00;101618.06;4910631;30;19929;-67
2021/09/11 09:20:24;;;;;;;;;;;;;;;19.18;100.00;101618.91;4907781;30;19918;-67
2021/09/11 09:22:59;;;;;;;;;;;;;;;19.20;100.00;101622.19;4907509;30;19919;-67
2021/09/11 09:25:31;;;;;;;;;;;;;;;19.15;100.00;101619.22;4907870;30;19934;-67
2021/09/11 09:28:06;;;;;;;;;;;;;;;19.11;100.00;101620.56;4907563;30;20481;-67
2021/09/11 09:30:42;;;;;;;;;;;;;;;19.12;100.00;101616.06;4907584;30;19918;-67
2021/09/11 09:33:29;;;;;;;;;;;;;;;19.13;100.00;101626.56;4908152;30;19971;-67
2021/09/11 09:36:01;;;;;;;;;;;;;;;19.18;100.00;101623.38;4907239;30;20100;-67
2021/09/11 09:38:32;;;;;;;;;;;;;;;19.22;100.00;101626.53;4905449;30;20417;-67
2021/09/11 09:41:09;;;;;;;;;;;;;;;19.22;100.00;101616.75;4904768;30;19919;-67
2021/09/11 09:43:44;;;;;;;;;;;;;;;19.28;100.00;101623.19;4901320;30;20509;-67
2021/09/11 09:46:17;;;;;;;;;;;;;;;19.33;100.00;101623.53;4902241;30;19923;-67
2021/09/11 09:48:48;;;;;;;;;;;;;;;19.41;100.00;101623.50;4909380;30;19918;-67
2021/09/11 09:51:20;;;;;;;;;;;;;;;19.51;100.00;101618.84;4909721;30;19926;-67
2021/09/11 09:53:52;;;;;;;;;;;;;;;19.62;100.00;101617.66;4905921;30;19988;-67
2021/09/11 09:56:23;;;;;;;;;;;;;;;19.70;100.00;101617.66;4907036;30;20383;-67
2021/09/11 09:58:54;;;;;;;;;;;;;;;19.78;100.00;101616.81;4908482;30;19922;-68
2021/09/11 10:01:27;;;;;;;;;;;;;;;19.80;100.00;101617.44;4907345;30;19922;-67
2021/09/11 10:04:11;;;;;;;;;;;;;;;19.86;100.00;101614.13;4899452;30;20631;-67
2021/09/11 10:07:02;;;;;;;;;;;;;;;19.88;100.00;101614.75;4898601;30;19933;-68
2021/09/11 10:09:34;;;;;;;;;;;;;;;19.96;100.00;101612.06;4906762;30;19926;-67
2021/09/11 10:12:26;;;;;;;;;;;;;;;20.06;100.00;101609.19;4906092;30;20302;-68
2021/09/11 10:15:15;;;;;;;;;;;;;;;20.16;100.00;101610.66;4902059;30;20298;-68
2021/09/11 10:17:47;;;;;;;;;;;;;;;20.21;100.00;101602.13;4901116;30;19962;-68
2021/09/11 10:20:18;;;;;;;;;;;;;;;20.28;100.00;101610.25;4907718;30;19954;-68
2021/09/11 10:23:06;;;;;;;;;;;;;;;20.32;100.00;101604.41;4907690;30;19980;-68
2021/09/11 10:25:39;;;;;;;;;;;;;;;20.31;100.00;101609.91;4905190;30;19923;-68
2021/09/11 10:28:11;;;;;;;;;;;;;;;20.28;100.00;101611.09;4901570;30;20005;-67
2021/09/11 10:31:02;;;;;;;;;;;;;;;20.23;100.00;101607.28;4904743;30;19922;-67
2021/09/11 10:33:37;;;;;;;;;;;;;;;20.17;100.00;101606.97;4905889;30;19933;-67
2021/09/11 10:36:10;;;;;;;;;;;;;;;20.15;100.00;101606.34;4902013;30;20402;-67
2021/09/11 10:38:42;;;;;;;;;;;;;;;20.17;100.00;101600.84;4897781;30;19918;-67
2021/09/11 10:41:14;;;;;;;;;;;;;;;20.17;100.00;101606.16;4906347;30;19923;-68
2021/09/11 10:44:00;;;;;;;;;;;;;;;20.13;100.00;101600.34;4899717;30;19943;-67
2021/09/11 10:46:51;;;;;;;;;;;;;;;20.12;100.00;101603.19;4899213;30;19929;-67
2021/09/11 10:49:29;;;;;;;;;;;;;;;20.11;100.00;101604.19;4905192;30;19922;-67
2021/09/11 10:52:04;;;;;;;;;;;;;;;20.11;100.00;101597.03;4906912;30;20490;-67
2021/09/11 10:54:39;;;;;;;;;;;;;;;20.14;100.00;101607.31;4902339;30;19925;-67
2021/09/11 10:57:16;;;;;;;;;;;;;;;20.14;100.00;101603.84;4905682;30;19938;-69
2021/09/11 10:59:48;;;;;;;;;;;;;;;20.16;100.00;101612.50;4907669;30;19919;-68
2021/09/11 11:02:21;;;;;;;;;;;;;;;20.24;100.00;101611.63;4911404;30;19925;-67
2021/09/11 11:04:57;;;;;;;;;;;;;;;20.34;100.00;101596.22;4905701;30;20383;-67
2021/09/11 11:07:29;;;;;;;;;;;;;;;20.57;100.00;101602.44;4908880;30;19923;-67
2021/09/11 11:10:06;;;;;;;;;;;;;;;20.69;100.00;101580.75;4905426;30;20441;-67
2021/09/11 11:12:40;;;;;;;;;;;;;;;20.91;100.00;101601.19;4907203;30;20401;-67
2021/09/11 11:15:13;;;;;;;;;;;;;;;20.99;100.00;101600.28;4911992;30;20334;-67
2021/09/11 11:17:45;;;;;;;;;;;;;;;21.08;100.00;101593.88;4912410;30;19954;-67
2021/09/11 11:20:21;;;;;;;;;;;;;;;21.20;100.00;101597.75;4907955;30;19937;-67
2021/09/11 11:22:55;;;;;;;;;;;;;;;21.22;100.00;101597.59;4903616;30;19937;-67
2021/09/11 11:25:28;;;;;;;;;;;;;;;21.20;100.00;101604.91;4902611;30;19933;-68
2021/09/11 11:28:00;;;;;;;;;;;;;;;21.03;100.00;101597.09;4908679;30;19927;-68
2021/09/11 11:30:32;;;;;;;;;;;;;;;20.93;100.00;101601.81;4904851;30;20021;-68
2021/09/11 11:33:04;;;;;;;;;;;;;;;20.75;100.00;101610.13;4910237;30;20415;-67
2021/09/11 11:35:39;;;;;;;;;;;;;;;20.59;100.00;101605.75;4906673;30;20468;-67
2021/09/11 11:38:11;;;;;;;;;;;;;;;20.44;100.00;101615.47;4904175;30;19923;-68
2021/09/11 11:40:42;;;;;;;;;;;;;;;20.32;100.00;101625.69;4906222;30;19926;-68
2021/09/11 11:43:13;;;;;;;;;;;;;;;20.18;100.00;101616.59;4910426;30;20394;-67
2021/09/11 11:45:46;;;;;;;;;;;;;;;20.11;100.00;101612.16;4909460;30;19919;-67
2021/09/11 11:48:17;;;;;;;;;;;;;;;20.08;100.00;101615.19;4904315;30;20029;-67
2021/09/11 11:50:49;;;;;;;;;;;;;;;20.07;100.00;101606.34;4903473;30;19923;-68
2021/09/11 11:53:20;;;;;;;;;;;;;;;20.10;100.00;101603.34;4906261;30;20466;-68
2021/09/11 11:55:52;;;;;;;;;;;;;;;20.20;100.00;101615.63;4912140;30;19984;-68
2021/09/11 11:58:27;;;;;;;;;;;;;;;20.28;100.00;101608.41;4908271;30;19918;-68
2021/09/11 12:00:59;;;;;;;;;;;;;;;20.35;100.00;101612.03;4910537;30;19918;-68
2021/09/11 12:03:43;;;;;;;;;;;;;;;20.44;100.00;101612.81;4912286;30;19918;-68
2021/09/11 12:06:15;;;;;;;;;;;;;;;20.45;100.00;101609.13;4910653;30;19918;-68
2021/09/11 12:08:47;;;;;;;;;;;;;;;20.45;100.00;101614.47;4910031;30;20281;-68
2021/09/11 12:11:23;;;;;;;;;;;;;;;20.52;100.00;101618.09;4902093;30;19958;-68
2021/09/11 12:13:55;;;;;;;;;;;;;;;20.56;100.00;101608.75;4907152;30;19919;-68
2021/09/11 12:16:27;;;;;;;;;;;;;;;20.65;100.00;101605.06;4905946;30;19919;-69
2021/09/11 12:19:09;;;;;;;;;;;;;;;20.69;100.00;101607.38;4911414;30;20406;-69
2021/09/11 12:21:40;;;;;;;;;;;;;;;20.76;100.00;101600.28;4911846;30;19915;-69
2021/09/11 12:24:19;;;;;;;;;;;;;;;20.71;100.00;101611.47;4907321;30;19945;-69
2021/09/11 12:26:50;;;;;;;;;;;;;;;20.65;100.00;101602.38;4907807;30;19937;-69
2021/09/11 12:29:25;;;;;;;;;;;;;;;20.58;100.00;101596.13;4908439;30;19923;-69
2021/09/11 12:31:57;;;;;;;;;;;;;;;20.57;100.00;101605.13;4922430;30;20038;-69
2021/09/11 12:34:28;;;;;;;;;;;;;;;20.54;100.00;101609.97;4910713;30;20009;-69
2021/09/11 12:37:02;;;;;;;;;;;;;;;20.60;100.00;101602.06;4908192;30;19924;-69
2021/09/11 12:39:34;;;;;;;;;;;;;;;20.68;100.00;101600.34;4909967;30;19922;-68
2021/09/11 12:42:12;;;;;;;;;;;;;;;20.69;100.00;101607.38;4905363;30;20462;-68
2021/09/11 12:44:43;;;;;;;;;;;;;;;20.73;100.00;101606.00;4906025;30;19929;-68
2021/09/11 12:47:16;;;;;;;;;;;;;;;20.76;100.00;101595.81;4907587;30;19930;-69
2021/09/11 12:49:47;;;;;;;;;;;;;;;20.83;100.00;101599.41;4906150;30;19922;-68
2021/09/11 12:52:18;;;;;;;;;;;;;;;20.90;100.00;101599.50;4908983;30;19925;-68
2021/09/11 12:54:50;;;;;;;;;;;;;;;20.91;100.00;101595.88;4909803;30;19961;-68